createdAt,value
2022-09-15T00:02:12.518Z,15.98
2022-09-15T00:04:38.863Z,15.97
2022-09-15T00:07:05.547Z,15.92
2022-09-15T00:09:31.820Z,15.99
2022-09-15T00:11:58.334Z,15.95
2022-09-15T00:14:24.641Z,15.92
2022-09-15T00:16:50.949Z,15.90
2022-09-15T00:19:17.293Z,15.89
2022-09-15T00:21:43.652Z,15.86
2022-09-15T00:24:09.940Z,15.85
2022-09-15T00:26:36.558Z,15.87
2022-09-15T00:29:04.142Z,15.88
2022-09-15T00:31:31.117Z,15.82
2022-09-15T00:33:58.412Z,15.80
2022-09-15T00:36:25.361Z,15.80
2022-09-15T00:38:52.111Z,15.79
2022-09-15T00:41:20.073Z,15.80
2022-09-15T00:43:48.224Z,15.76
2022-09-15T00:46:15.349Z,15.77
2022-09-15T00:48:44.328Z,15.80
2022-09-15T00:51:11.805Z,15.79
2022-09-15T00:53:38.632Z,15.75
2022-09-15T00:56:06.680Z,15.72
2022-09-15T00:58:36.742Z,15.71
2022-09-15T01:01:04.665Z,15.68
2022-09-15T01:03:32.526Z,15.63
2022-09-15T01:06:01.909Z,15.62
2022-09-15T01:08:32.301Z,15.60
2022-09-15T01:10:59.258Z,15.67
2022-09-15T01:13:26.094Z,15.62
2022-09-15T01:15:52.437Z,15.57
2022-09-15T01:18:30.779Z,15.57
2022-09-15T01:21:14.476Z,15.56
2022-09-15T01:23:53.164Z,15.55
2022-09-15T01:26:22.734Z,15.56
2022-09-15T01:29:09.377Z,15.54
2022-09-15T01:31:46.885Z,15.54
2022-09-15T01:34:16.659Z,15.54
2022-09-15T01:36:47.557Z,15.48
2022-09-15T01:39:16.608Z,15.49
2022-09-15T01:41:45.672Z,15.49
2022-09-15T01:44:14.243Z,15.48
2022-09-15T01:46:45.860Z,15.48
2022-09-15T01:49:14.952Z,15.49
2022-09-15T01:51:42.922Z,15.48
2022-09-15T01:54:10.968Z,15.50
2022-09-15T01:56:38.537Z,15.49
2022-09-15T01:59:05.452Z,15.48
2022-09-15T02:01:39.399Z,15.50
2022-09-15T02:04:18.034Z,15.46
2022-09-15T02:06:50.625Z,15.46
2022-09-15T02:09:26.248Z,15.43
2022-09-15T02:12:01.685Z,15.43
2022-09-15T02:14:36.849Z,15.38
2022-09-15T02:17:03.186Z,15.37
2022-09-15T02:19:52.752Z,15.38
2022-09-15T02:22:22.567Z,15.37
2022-09-15T02:24:54.129Z,15.35
2022-09-15T02:27:22.620Z,15.29
2022-09-15T02:29:49.843Z,15.25
2022-09-15T02:32:17.566Z,15.23
2022-09-15T02:34:45.393Z,15.25
2022-09-15T02:37:12.885Z,15.25
2022-09-15T02:39:43.302Z,15.23
2022-09-15T02:42:09.932Z,15.23
2022-09-15T02:44:36.519Z,15.18
2022-09-15T02:47:03.169Z,15.17
2022-09-15T02:49:29.746Z,15.14
2022-09-15T02:51:55.990Z,15.14
2022-09-15T02:54:22.454Z,15.10
2022-09-15T02:56:48.972Z,15.07
2022-09-15T02:59:15.203Z,15.01
2022-09-15T03:01:41.621Z,14.97
2022-09-15T03:04:07.896Z,14.95
2022-09-15T03:06:34.130Z,14.93
2022-09-15T03:09:01.714Z,14.92
2022-09-15T03:11:29.049Z,14.94
2022-09-15T03:13:59.760Z,14.96
2022-09-15T03:16:26.667Z,14.96
2022-09-15T03:18:56.885Z,14.96
2022-09-15T03:21:23.403Z,14.93
2022-09-15T03:23:49.723Z,14.92
2022-09-15T03:26:16.330Z,14.90
2022-09-15T03:28:43.156Z,14.90
2022-09-15T03:31:09.678Z,14.88
2022-09-15T03:33:36.625Z,14.86
2022-09-15T03:36:03.905Z,14.90
2022-09-15T03:38:30.222Z,14.88
2022-09-15T03:41:07.331Z,14.84
2022-09-15T03:43:34.691Z,14.83
2022-09-15T03:46:01.207Z,14.85
2022-09-15T03:48:28.242Z,14.86
2022-09-15T03:50:54.920Z,14.85
2022-09-15T03:53:21.338Z,14.86
2022-09-15T03:55:48.008Z,14.86
2022-09-15T03:58:14.706Z,14.86
2022-09-15T04:00:41.547Z,14.84
2022-09-15T04:03:08.879Z,14.83
2022-09-15T04:05:35.967Z,14.83
2022-09-15T04:08:02.810Z,14.83
2022-09-15T04:10:29.490Z,14.85
2022-09-15T04:12:55.822Z,14.86
2022-09-15T04:15:22.219Z,14.86
2022-09-15T04:17:48.642Z,14.84
2022-09-15T04:20:15.284Z,14.82
2022-09-15T04:22:41.577Z,14.85
2022-09-15T04:25:08.364Z,14.84
2022-09-15T04:27:34.621Z,14.82
2022-09-15T04:30:01.083Z,14.85
2022-09-15T04:32:28.709Z,14.85
2022-09-15T04:34:55.074Z,14.92
2022-09-15T04:37:21.883Z,14.89
2022-09-15T04:39:50.280Z,14.83
2022-09-15T04:42:16.678Z,14.75
2022-09-15T04:44:42.976Z,14.76
2022-09-15T04:47:09.267Z,14.75
2022-09-15T04:49:35.490Z,14.72
2022-09-15T04:52:02.833Z,14.68
2022-09-15T04:54:31.186Z,14.69
2022-09-15T04:56:57.693Z,14.69
2022-09-15T04:59:24.185Z,14.68
2022-09-15T05:01:53.538Z,14.68
2022-09-15T05:04:19.938Z,14.69
2022-09-15T05:06:46.162Z,14.69
2022-09-15T05:09:13.074Z,14.69
2022-09-15T05:11:39.567Z,14.67
2022-09-15T05:14:06.253Z,14.67
2022-09-15T05:16:32.670Z,14.69
2022-09-15T05:19:00.312Z,14.64
2022-09-15T05:21:35.204Z,14.62
2022-09-15T05:24:01.609Z,14.59
2022-09-15T05:26:28.906Z,14.63
2022-09-15T05:28:56.080Z,14.63
2022-09-15T05:31:22.743Z,14.62
2022-09-15T05:33:50.479Z,14.60
2022-09-15T05:36:17.146Z,14.60
2022-09-15T05:38:43.985Z,14.66
2022-09-15T05:41:12.001Z,14.68
2022-09-15T05:43:38.874Z,14.69
2022-09-15T05:46:05.924Z,14.64
2022-09-15T05:48:32.806Z,14.64
2022-09-15T05:50:59.102Z,14.70
2022-09-15T05:53:26.488Z,14.70
2022-09-15T05:55:56.376Z,14.72
2022-09-15T05:58:22.941Z,14.80
2022-09-15T06:00:49.385Z,14.74
2022-09-15T06:03:16.433Z,14.71
2022-09-15T06:05:42.912Z,14.64
2022-09-15T06:08:09.363Z,14.62
2022-09-15T06:10:35.630Z,14.57
2022-09-15T06:13:01.961Z,14.59
2022-09-15T06:15:28.177Z,14.62
2022-09-15T06:17:54.498Z,14.64
2022-09-15T06:20:21.002Z,14.72
2022-09-15T06:22:47.694Z,14.60
2022-09-15T06:25:14.110Z,14.57
2022-09-15T06:27:40.740Z,14.55
2022-09-15T06:30:08.024Z,14.55
2022-09-15T06:32:34.633Z,14.59
2022-09-15T06:35:00.992Z,14.61
2022-09-15T06:37:27.358Z,14.65
2022-09-15T06:39:53.643Z,14.73
2022-09-15T06:42:20.010Z,14.79
2022-09-15T06:44:46.388Z,14.83
2022-09-15T06:47:14.572Z,14.81
2022-09-15T06:49:40.845Z,14.84
2022-09-15T06:52:08.119Z,14.91
2022-09-15T06:54:34.387Z,14.86
2022-09-15T06:57:00.852Z,14.77
2022-09-15T06:59:27.518Z,14.81
2022-09-15T07:01:54.364Z,14.82
2022-09-15T07:04:21.126Z,14.90
2022-09-15T07:06:47.912Z,14.99
2022-09-15T07:09:14.205Z,15.00
2022-09-15T07:11:40.636Z,14.94
2022-09-15T07:14:06.973Z,15.06
2022-09-15T07:16:33.682Z,15.04
2022-09-15T07:19:00.033Z,14.97
2022-09-15T07:21:26.337Z,14.90
2022-09-15T07:23:52.754Z,14.90
2022-09-15T07:26:22.588Z,14.85
2022-09-15T07:28:50.242Z,14.89
2022-09-15T07:31:18.296Z,14.96
2022-09-15T07:33:44.886Z,14.99
2022-09-15T07:36:11.577Z,15.07
2022-09-15T07:38:42.399Z,15.16
2022-09-15T07:41:10.834Z,15.23
2022-09-15T07:43:37.695Z,15.33
2022-09-15T07:46:04.592Z,15.38
2022-09-15T07:48:30.995Z,15.44
2022-09-15T07:50:57.640Z,15.48
2022-09-15T07:53:24.039Z,15.53
2022-09-15T07:55:53.399Z,15.49
2022-09-15T07:58:19.718Z,15.41
2022-09-15T08:00:46.227Z,15.44
2022-09-15T08:03:12.576Z,15.39
2022-09-15T08:05:42.322Z,15.48
2022-09-15T08:08:11.683Z,15.55
2022-09-15T08:10:38.758Z,15.63
2022-09-15T08:13:04.984Z,15.72
2022-09-15T08:15:31.661Z,15.72
2022-09-15T08:17:58.001Z,15.67
2022-09-15T08:20:24.552Z,15.77
2022-09-15T08:22:50.778Z,15.76
2022-09-15T08:25:17.129Z,15.87
2022-09-15T08:27:43.582Z,15.89
2022-09-15T08:30:10.090Z,15.83
2022-09-15T08:32:36.389Z,15.94
2022-09-15T08:35:02.709Z,16.39
2022-09-15T08:37:28.970Z,16.13
2022-09-15T08:39:55.523Z,16.10
2022-09-15T08:42:22.907Z,16.10
2022-09-15T08:44:53.669Z,16.10
2022-09-15T08:47:23.111Z,15.91
2022-09-15T08:49:56.138Z,15.80
2022-09-15T08:52:26.690Z,15.76
2022-09-15T08:54:55.083Z,15.83
2022-09-15T08:57:23.284Z,15.91
2022-09-15T08:59:49.627Z,15.84
2022-09-15T09:02:28.523Z,16.01
2022-09-15T09:05:07.297Z,16.11
2022-09-15T09:07:33.654Z,16.44
2022-09-15T09:10:06.954Z,16.25
2022-09-15T09:12:54.939Z,16.06
2022-09-15T09:15:31.025Z,16.01
2022-09-15T09:18:05.901Z,16.06
2022-09-15T09:20:32.149Z,16.21
2022-09-15T09:22:59.301Z,16.20
2022-09-15T09:25:28.155Z,16.12
2022-09-15T09:27:56.803Z,16.21
2022-09-15T09:30:24.514Z,16.35
2022-09-15T09:33:09.600Z,16.27
2022-09-15T09:35:43.901Z,16.24
2022-09-15T09:38:11.042Z,16.16
2022-09-15T09:40:37.958Z,16.25
2022-09-15T09:43:04.551Z,16.16
2022-09-15T09:45:31.035Z,16.12
2022-09-15T09:48:09.158Z,16.33
2022-09-15T09:50:35.444Z,16.71
2022-09-15T09:53:20.521Z,16.89
2022-09-15T09:55:46.889Z,17.23
2022-09-15T09:58:14.305Z,17.09
2022-09-15T10:00:40.882Z,17.44
2022-09-15T10:03:18.201Z,17.78
2022-09-15T10:05:45.429Z,17.45
2022-09-15T10:08:15.397Z,17.25
2022-09-15T10:10:49.214Z,17.15
2022-09-15T10:13:15.945Z,17.31
2022-09-15T10:15:42.442Z,17.41
2022-09-15T10:18:22.693Z,17.47
2022-09-15T10:20:51.071Z,17.66
2022-09-15T10:23:17.272Z,17.51
2022-09-15T10:25:58.703Z,17.37
2022-09-15T10:28:26.941Z,17.29
2022-09-15T10:30:59.323Z,17.36
2022-09-15T10:33:26.610Z,17.52
2022-09-15T10:35:54.660Z,17.42
2022-09-15T10:38:25.994Z,17.42
2022-09-15T10:40:52.192Z,17.31
2022-09-15T10:43:33.050Z,17.25
2022-09-15T10:46:03.474Z,17.16
2022-09-15T10:48:41.694Z,17.09
2022-09-15T10:51:08.008Z,17.07
2022-09-15T10:53:59.199Z,17.18
2022-09-15T10:56:28.514Z,17.07
2022-09-15T10:59:20.639Z,17.05
2022-09-15T11:01:52.842Z,16.98
2022-09-15T11:04:51.629Z,17.15
2022-09-15T11:07:36.395Z,17.05
2022-09-15T11:10:16.365Z,17.09
2022-09-15T11:12:45.977Z,17.11
2022-09-15T11:15:30.912Z,17.02
2022-09-15T11:18:03.923Z,17.05
2022-09-15T11:20:36.406Z,17.19
2022-09-15T11:23:11.385Z,17.07
2022-09-15T11:25:43.951Z,17.19
2022-09-15T11:28:17.966Z,17.21
2022-09-15T11:30:48.088Z,17.29
2022-09-15T11:33:20.460Z,17.21
2022-09-15T11:35:56.750Z,17.35
2022-09-15T11:38:30.569Z,17.20
2022-09-15T11:41:01.652Z,17.68
2022-09-15T11:43:27.863Z,17.46
2022-09-15T11:45:56.387Z,17.42
2022-09-15T11:48:30.232Z,17.20
2022-09-15T11:50:58.813Z,17.34
2022-09-15T11:53:33.018Z,17.17
2022-09-15T11:56:08.524Z,17.20
2022-09-15T11:58:34.743Z,17.17
2022-09-15T12:01:12.132Z,17.10
2022-09-15T12:03:56.899Z,17.36
2022-09-15T12:06:26.014Z,17.32
2022-09-15T12:08:56.903Z,17.10
2022-09-15T12:11:25.113Z,17.09
2022-09-15T12:13:52.420Z,17.09
2022-09-15T12:16:19.563Z,17.25
2022-09-15T12:18:54.726Z,17.23
2022-09-15T12:21:46.046Z,17.22
2022-09-15T12:24:14.704Z,17.19
2022-09-15T12:26:41.109Z,17.26
2022-09-15T12:29:22.483Z,17.43
2022-09-15T12:31:48.850Z,17.59
2022-09-15T12:34:35.456Z,17.59
2022-09-15T12:37:11.345Z,17.54
2022-09-15T12:39:39.861Z,17.61
2022-09-15T12:42:08.488Z,17.67
2022-09-15T12:44:37.066Z,17.76
2022-09-15T12:47:04.702Z,17.74
2022-09-15T12:49:41.618Z,17.68
2022-09-15T12:52:08.388Z,17.76
2022-09-15T12:54:35.722Z,17.96
2022-09-15T12:57:02.402Z,17.91
2022-09-15T12:59:28.821Z,18.03
2022-09-15T13:01:55.866Z,18.28
2022-09-15T13:04:25.032Z,18.32
2022-09-15T13:07:10.445Z,19.07
2022-09-15T13:09:56.227Z,19.09
2022-09-15T13:12:24.757Z,18.78
2022-09-15T13:14:54.351Z,18.67
2022-09-15T13:17:22.693Z,18.78
2022-09-15T13:19:51.700Z,18.90
2022-09-15T13:22:30.200Z,18.90
2022-09-15T13:25:05.654Z,19.05
2022-09-15T13:27:48.621Z,18.95
2022-09-15T13:30:20.793Z,19.05
2022-09-15T13:32:58.690Z,18.73
2022-09-15T13:35:33.573Z,18.98
2022-09-15T13:38:29.135Z,18.96
2022-09-15T13:41:00.489Z,18.74
2022-09-15T13:43:35.353Z,18.46
2022-09-15T13:46:11.076Z,18.25
2022-09-15T13:48:46.628Z,18.11
2022-09-15T13:51:23.688Z,18.46
2022-09-15T13:53:53.278Z,18.11
2022-09-15T13:56:25.503Z,18.09
2022-09-15T13:58:56.599Z,18.12
2022-09-15T14:01:26.356Z,18.12
2022-09-15T14:03:54.724Z,18.31
2022-09-15T14:06:23.413Z,18.31
2022-09-15T14:08:51.690Z,18.45
2022-09-15T14:11:21.987Z,18.45
2022-09-15T14:13:49.770Z,18.70
2022-09-15T14:16:24.527Z,18.51
2022-09-15T14:18:51.450Z,18.50
2022-09-15T14:21:25.015Z,18.34
2022-09-15T14:23:52.801Z,18.34
2022-09-15T14:26:20.953Z,18.38
2022-09-15T14:28:57.057Z,18.66
2022-09-15T14:31:28.142Z,18.39
2022-09-15T14:33:54.463Z,18.43
2022-09-15T14:36:47.333Z,18.28
2022-09-15T14:39:18.905Z,18.13
2022-09-15T14:41:46.934Z,18.32
2022-09-15T14:47:18.078Z,18.22
2022-09-15T14:49:44.288Z,18.28
2022-09-15T14:52:25.809Z,18.20
2022-09-15T14:54:55.449Z,18.65
2022-09-15T14:57:26.500Z,18.37
2022-09-15T14:59:58.353Z,18.29
2022-09-15T15:02:24.917Z,18.70
2022-09-15T15:04:56.323Z,18.39
2022-09-15T15:07:30.819Z,18.32
2022-09-15T15:10:06.567Z,18.41
2022-09-15T15:12:58.936Z,18.57
2022-09-15T15:15:25.614Z,18.69
2022-09-15T15:17:52.810Z,18.64
2022-09-15T15:20:20.728Z,18.73
2022-09-15T15:22:47.270Z,18.86
2022-09-15T15:25:22.317Z,18.84
2022-09-15T15:27:52.965Z,18.77
2022-09-15T15:30:25.244Z,18.82
2022-09-15T15:32:51.580Z,18.83
2022-09-15T15:35:19.100Z,18.62
2022-09-15T15:37:46.025Z,18.53
2022-09-15T15:40:18.315Z,18.50
2022-09-15T15:42:52.228Z,18.68
2022-09-15T15:45:24.149Z,18.51
2022-09-15T15:47:50.538Z,18.50
2022-09-15T15:50:21.470Z,18.55
2022-09-15T15:52:48.421Z,18.20
2022-09-15T15:55:16.184Z,18.15
2022-09-15T15:57:42.579Z,18.10
2022-09-15T16:00:21.346Z,17.75
2022-09-15T16:02:48.010Z,17.69
2022-09-15T16:05:14.338Z,17.71
2022-09-15T16:07:40.650Z,17.78
2022-09-15T16:10:08.124Z,17.90
2022-09-15T16:12:35.472Z,17.76
2022-09-15T16:15:02.103Z,17.62
2022-09-15T16:17:28.395Z,17.57
2022-09-15T16:19:54.946Z,17.47
2022-09-15T16:22:21.257Z,17.52
2022-09-15T16:24:47.564Z,17.41
2022-09-15T16:27:15.119Z,17.39
2022-09-15T16:29:41.494Z,17.37
2022-09-15T16:32:10.669Z,17.38
2022-09-15T16:34:36.933Z,17.41
2022-09-15T16:37:03.262Z,17.23
2022-09-15T16:39:29.626Z,17.22
2022-09-15T16:41:56.007Z,17.18
2022-09-15T16:44:22.738Z,17.20
2022-09-15T16:46:49.328Z,17.33
2022-09-15T16:49:15.600Z,17.42
2022-09-15T16:51:41.832Z,17.38
2022-09-15T16:54:15.211Z,17.29
2022-09-15T16:56:42.320Z,17.21
2022-09-15T16:59:08.559Z,17.20
2022-09-15T17:01:34.906Z,17.02
2022-09-15T17:04:01.662Z,16.87
2022-09-15T17:06:28.271Z,17.03
2022-09-15T17:08:54.693Z,16.89
2022-09-15T17:11:21.101Z,16.69
2022-09-15T17:13:47.822Z,16.80
2022-09-15T17:16:15.425Z,16.86
2022-09-15T17:18:42.013Z,16.76
2022-09-15T17:21:12.025Z,16.76
2022-09-15T17:23:39.588Z,16.65
2022-09-15T17:26:17.555Z,16.63
2022-09-15T17:28:44.284Z,16.80
2022-09-15T17:31:13.563Z,16.83
2022-09-15T17:33:39.909Z,16.71
2022-09-15T17:36:07.512Z,16.74
2022-09-15T17:38:34.160Z,16.79
2022-09-15T17:41:00.553Z,16.55
2022-09-15T17:43:28.597Z,16.44
2022-09-15T17:45:55.412Z,16.58
2022-09-15T17:48:22.178Z,16.44
2022-09-15T17:50:48.989Z,16.40
2022-09-15T17:53:16.721Z,16.34
2022-09-15T17:55:43.385Z,16.22
2022-09-15T17:58:10.126Z,16.12
2022-09-15T18:00:38.142Z,16.04
2022-09-15T18:03:18.390Z,16.01
2022-09-15T18:05:44.674Z,15.97
2022-09-15T18:08:11.572Z,15.91
2022-09-15T18:10:37.908Z,15.89
2022-09-15T18:13:05.335Z,15.83
2022-09-15T18:15:33.044Z,15.80
2022-09-15T18:18:03.237Z,15.73
2022-09-15T18:20:31.463Z,15.67
2022-09-15T18:22:58.272Z,15.66
2022-09-15T18:25:25.970Z,15.63
2022-09-15T18:27:52.526Z,15.59
2022-09-15T18:30:19.422Z,15.55
2022-09-15T18:32:45.681Z,15.53
2022-09-15T18:35:17.681Z,15.50
2022-09-15T18:37:45.076Z,15.48
2022-09-15T18:40:12.330Z,15.48
2022-09-15T18:42:39.307Z,15.46
2022-09-15T18:45:06.430Z,15.46
2022-09-15T18:47:33.311Z,15.48
2022-09-15T18:49:59.682Z,15.48
2022-09-15T18:52:26.124Z,15.46
2022-09-15T18:54:52.510Z,15.45
2022-09-15T18:57:19.175Z,15.45
2022-09-15T18:59:51.377Z,15.45
2022-09-15T19:02:18.252Z,15.52
2022-09-15T19:04:44.559Z,15.46
2022-09-15T19:07:11.398Z,15.45
2022-09-15T19:09:38.320Z,15.49
2022-09-15T19:12:04.665Z,15.63
2022-09-15T19:14:31.459Z,15.57
2022-09-15T19:16:58.603Z,15.59
2022-09-15T19:19:25.271Z,15.56
2022-09-15T19:21:51.554Z,15.50
2022-09-15T19:24:17.794Z,15.45
2022-09-15T19:26:44.505Z,15.48
2022-09-15T19:29:10.802Z,15.73
2022-09-15T19:31:41.664Z,15.77
2022-09-15T19:34:08.479Z,15.65
2022-09-15T19:36:35.145Z,15.71
2022-09-15T19:39:01.462Z,15.59
2022-09-15T19:41:27.728Z,15.65
2022-09-15T19:43:54.270Z,15.70
2022-09-15T19:46:22.472Z,15.65
2022-09-15T19:48:50.250Z,15.65
2022-09-15T19:51:17.250Z,15.69
2022-09-15T19:53:44.279Z,15.65
2022-09-15T19:56:15.430Z,15.73
2022-09-15T19:58:41.671Z,15.68
2022-09-15T20:01:09.031Z,15.72
2022-09-15T20:03:35.369Z,15.62
2022-09-15T20:06:04.292Z,15.67
2022-09-15T20:08:30.781Z,15.60
2022-09-15T20:10:57.148Z,15.66
2022-09-15T20:13:23.507Z,15.67
2022-09-15T20:15:59.417Z,15.59
2022-09-15T20:18:25.794Z,15.63
2022-09-15T20:20:52.741Z,15.57
2022-09-15T20:23:19.392Z,15.59
2022-09-15T20:25:57.758Z,15.59
2022-09-15T20:28:24.142Z,15.64
2022-09-15T20:30:59.862Z,15.61
2022-09-15T20:33:26.541Z,15.63
2022-09-15T20:35:52.876Z,15.73
2022-09-15T20:38:19.689Z,15.87
2022-09-15T20:40:46.457Z,15.80
2022-09-15T20:43:12.708Z,15.78
2022-09-15T20:45:39.051Z,15.74
2022-09-15T20:48:05.284Z,15.83
2022-09-15T20:50:31.581Z,15.71
2022-09-15T20:52:58.041Z,15.73
2022-09-15T20:55:24.344Z,15.82
2022-09-15T20:57:50.772Z,15.85
2022-09-15T21:00:17.110Z,15.83
2022-09-15T21:02:43.395Z,15.80
2022-09-15T21:05:10.097Z,15.69
2022-09-15T21:07:36.326Z,15.62
2022-09-15T21:10:02.896Z,15.55
2022-09-15T21:12:29.266Z,15.50
2022-09-15T21:14:55.678Z,15.55
2022-09-15T21:17:22.338Z,15.61
2022-09-15T21:19:48.698Z,15.60
2022-09-15T21:22:15.053Z,15.57
2022-09-15T21:24:41.276Z,15.57
2022-09-15T21:27:07.853Z,15.59
2022-09-15T21:29:34.089Z,15.65
2022-09-15T21:32:00.432Z,15.50
2022-09-15T21:34:27.040Z,15.36
2022-09-15T21:36:53.321Z,15.25
2022-09-15T21:39:19.690Z,15.14
2022-09-15T21:41:46.250Z,15.04
2022-09-15T21:44:12.595Z,14.98
2022-09-15T21:46:38.989Z,14.90
2022-09-15T21:49:05.293Z,14.87
2022-09-15T21:51:31.528Z,14.86
2022-09-15T21:53:58.779Z,14.89
2022-09-15T21:56:25.865Z,15.00
2022-09-15T21:58:52.343Z,15.01
2022-09-15T22:01:20.372Z,15.02
2022-09-15T22:03:54.143Z,15.09
2022-09-15T22:06:22.472Z,15.11
2022-09-15T22:08:48.794Z,15.05
2022-09-15T22:11:15.360Z,15.13
2022-09-15T22:13:43.083Z,15.12
2022-09-15T22:16:13.978Z,15.23
2022-09-15T22:18:41.394Z,15.34
2022-09-15T22:21:09.596Z,15.39
2022-09-15T22:23:35.910Z,15.37
2022-09-15T22:26:04.285Z,15.35
2022-09-15T22:28:31.244Z,15.27
2022-09-15T22:31:00.934Z,15.16
2022-09-15T22:33:27.712Z,15.17
2022-09-15T22:35:54.099Z,15.08
2022-09-15T22:38:21.116Z,15.05
2022-09-15T22:40:47.470Z,14.98
2022-09-15T22:43:13.881Z,14.88
2022-09-15T22:45:40.262Z,15.21
2022-09-15T22:48:06.857Z,15.13
2022-09-15T22:50:33.415Z,14.99
2022-09-15T22:52:59.918Z,14.89
2022-09-15T22:55:26.226Z,14.82
2022-09-15T22:57:52.521Z,14.80
2022-09-15T23:00:18.839Z,14.78
2022-09-15T23:02:46.303Z,14.83
2022-09-15T23:05:12.904Z,14.84
2022-09-15T23:07:39.201Z,14.74
2022-09-15T23:10:05.506Z,14.66
2022-09-15T23:12:32.339Z,14.60
2022-09-15T23:14:58.661Z,14.58
2022-09-15T23:17:25.013Z,14.46
2022-09-15T23:19:51.237Z,14.37
2022-09-15T23:22:17.468Z,14.32
2022-09-15T23:24:43.857Z,14.20
2022-09-15T23:27:10.386Z,14.13
2022-09-15T23:29:36.669Z,14.06
2022-09-15T23:32:03.008Z,14.05
2022-09-15T23:34:29.235Z,14.17
2022-09-15T23:36:55.725Z,14.25
2022-09-15T23:39:22.081Z,14.34
2022-09-15T23:41:48.512Z,14.32
2022-09-15T23:44:14.870Z,14.34
2022-09-15T23:46:41.233Z,14.26
2022-09-15T23:49:07.796Z,14.24
2022-09-15T23:51:34.486Z,14.13
2022-09-15T23:54:00.781Z,14.06
2022-09-15T23:56:27.029Z,13.95
2022-09-15T23:58:54.062Z,13.88
